sensor_id;sensor_type;location;lat;lon;timestamp;pressure;altitude;pressure_sealevel;temperature
71564;BMP180;59391;52.504;13.438;2023-11-19T00:00:35;101145.00;;;8.90
71564;BMP180;59391;52.504;13.438;2023-11-19T00:03:01;101161.00;;;8.90
71564;BMP180;59391;52.504;13.438;2023-11-19T00:05:27;101134.00;;;8.90
71564;BMP180;59391;52.504;13.438;2023-11-19T00:07:53;101137.00;;;8.90
71564;BMP180;59391;52.504;13.438;2023-11-19T00:10:19;101120.00;;;8.90
71564;BMP180;59391;52.504;13.438;2023-11-19T00:12:48;101113.00;;;9.00
71564;BMP180;59391;52.504;13.438;2023-11-19T00:15:15;101100.00;;;9.00
71564;BMP180;59391;52.504;13.438;2023-11-19T00:17:45;101096.00;;;9.00
71564;BMP180;59391;52.504;13.438;2023-11-19T00:20:18;101104.00;;;9.00
71564;BMP180;59391;52.504;13.438;2023-11-19T00:22:45;101089.00;;;9.00
71564;BMP180;59391;52.504;13.438;2023-11-19T00:25:20;101092.00;;;9.00
71564;BMP180;59391;52.504;13.438;2023-11-19T00:27:47;101081.00;;;9.00
71564;BMP180;59391;52.504;13.438;2023-11-19T00:30:13;101095.00;;;9.00
71564;BMP180;59391;52.504;13.438;2023-11-19T00:32:40;101083.00;;;9.00
71564;BMP180;59391;52.504;13.438;2023-11-19T00:35:07;101079.00;;;9.00
71564;BMP180;59391;52.504;13.438;2023-11-19T00:37:33;101069.00;;;9.00
71564;BMP180;59391;52.504;13.438;2023-11-19T00:39:58;101055.00;;;9.00
71564;BMP180;59391;52.504;13.438;2023-11-19T00:42:24;101050.00;;;9.00
71564;BMP180;59391;52.504;13.438;2023-11-19T00:44:53;101043.00;;;9.00
71564;BMP180;59391;52.504;13.438;2023-11-19T00:47:18;101038.00;;;9.00
71564;BMP180;59391;52.504;13.438;2023-11-19T00:49:48;101033.00;;;9.00
71564;BMP180;59391;52.504;13.438;2023-11-19T00:52:15;101015.00;;;9.10
71564;BMP180;59391;52.504;13.438;2023-11-19T00:54:41;101013.00;;;9.10
71564;BMP180;59391;52.504;13.438;2023-11-19T00:57:06;101010.00;;;9.10
71564;BMP180;59391;52.504;13.438;2023-11-19T00:59:32;100999.00;;;9.10
71564;BMP180;59391;52.504;13.438;2023-11-19T01:01:58;101002.00;;;9.10
71564;BMP180;59391;52.504;13.438;2023-11-19T01:04:34;100991.00;;;9.10
71564;BMP180;59391;52.504;13.438;2023-11-19T01:07:02;100974.00;;;9.00
71564;BMP180;59391;52.504;13.438;2023-11-19T01:09:38;100981.00;;;9.10
71564;BMP180;59391;52.504;13.438;2023-11-19T01:12:04;100969.00;;;9.10
71564;BMP180;59391;52.504;13.438;2023-11-19T01:14:30;100960.00;;;9.10
71564;BMP180;59391;52.504;13.438;2023-11-19T01:16:56;100946.00;;;9.10
71564;BMP180;59391;52.504;13.438;2023-11-19T01:19:22;100915.00;;;9.20
71564;BMP180;59391;52.504;13.438;2023-11-19T01:21:49;100911.00;;;9.10
71564;BMP180;59391;52.504;13.438;2023-11-19T01:24:15;100914.00;;;9.10
71564;BMP180;59391;52.504;13.438;2023-11-19T01:26:41;100904.00;;;9.20
71564;BMP180;59391;52.504;13.438;2023-11-19T01:29:14;100914.00;;;9.20
71564;BMP180;59391;52.504;13.438;2023-11-19T01:31:45;100912.00;;;9.20
71564;BMP180;59391;52.504;13.438;2023-11-19T01:34:12;100909.00;;;9.20
71564;BMP180;59391;52.504;13.438;2023-11-19T01:36:37;100894.00;;;9.20
71564;BMP180;59391;52.504;13.438;2023-11-19T01:39:03;100903.00;;;9.20
71564;BMP180;59391;52.504;13.438;2023-11-19T01:41:36;100897.00;;;9.20
71564;BMP180;59391;52.504;13.438;2023-11-19T01:44:02;100879.00;;;9.20
71564;BMP180;59391;52.504;13.438;2023-11-19T01:46:28;100869.00;;;9.20
71564;BMP180;59391;52.504;13.438;2023-11-19T01:48:54;100864.00;;;9.20
71564;BMP180;59391;52.504;13.438;2023-11-19T01:51:22;100821.00;;;9.20
71564;BMP180;59391;52.504;13.438;2023-11-19T01:53:49;100835.00;;;9.30
71564;BMP180;59391;52.504;13.438;2023-11-19T01:56:15;100835.00;;;9.30
71564;BMP180;59391;52.504;13.438;2023-11-19T01:58:44;100827.00;;;9.20
71564;BMP180;59391;52.504;13.438;2023-11-19T02:01:11;100825.00;;;9.20
71564;BMP180;59391;52.504;13.438;2023-11-19T02:03:37;100820.00;;;9.20
71564;BMP180;59391;52.504;13.438;2023-11-19T02:06:04;100819.00;;;9.20
71564;BMP180;59391;52.504;13.438;2023-11-19T02:08:30;100812.00;;;9.20
71564;BMP180;59391;52.504;13.438;2023-11-19T02:10:56;100798.00;;;9.10
71564;BMP180;59391;52.504;13.438;2023-11-19T02:13:22;100781.00;;;9.10
71564;BMP180;59391;52.504;13.438;2023-11-19T02:15:48;100758.00;;;9.10
71564;BMP180;59391;52.504;13.438;2023-11-19T02:18:21;100739.00;;;9.00
71564;BMP180;59391;52.504;13.438;2023-11-19T02:20:50;100733.00;;;9.00
71564;BMP180;59391;52.504;13.438;2023-11-19T02:23:18;100723.00;;;8.90
71564;BMP180;59391;52.504;13.438;2023-11-19T02:26:05;100729.00;;;9.00
71564;BMP180;59391;52.504;13.438;2023-11-19T02:28:35;100732.00;;;9.00
71564;BMP180;59391;52.504;13.438;2023-11-19T02:31:01;100718.00;;;9.10
71564;BMP180;59391;52.504;13.438;2023-11-19T02:33:27;100723.00;;;9.10
71564;BMP180;59391;52.504;13.438;2023-11-19T02:35:52;100712.00;;;9.10
71564;BMP180;59391;52.504;13.438;2023-11-19T02:38:18;100714.00;;;9.10
71564;BMP180;59391;52.504;13.438;2023-11-19T02:40:43;100704.00;;;9.20
71564;BMP180;59391;52.504;13.438;2023-11-19T02:43:09;100684.00;;;9.20
71564;BMP180;59391;52.504;13.438;2023-11-19T02:45:35;100694.00;;;9.20
71564;BMP180;59391;52.504;13.438;2023-11-19T02:48:01;100694.00;;;9.30
71564;BMP180;59391;52.504;13.438;2023-11-19T02:50:27;100682.00;;;9.10
71564;BMP180;59391;52.504;13.438;2023-11-19T02:52:55;100690.00;;;9.30
71564;BMP180;59391;52.504;13.438;2023-11-19T02:55:24;100672.00;;;9.30
71564;BMP180;59391;52.504;13.438;2023-11-19T02:57:51;100656.00;;;9.30
71564;BMP180;59391;52.504;13.438;2023-11-19T03:00:21;100647.00;;;9.30
71564;BMP180;59391;52.504;13.438;2023-11-19T03:02:51;100637.00;;;9.30
71564;BMP180;59391;52.504;13.438;2023-11-19T03:05:26;100639.00;;;9.30
71564;BMP180;59391;52.504;13.438;2023-11-19T03:07:52;100629.00;;;9.30
71564;BMP180;59391;52.504;13.438;2023-11-19T03:10:18;100617.00;;;9.30
71564;BMP180;59391;52.504;13.438;2023-11-19T03:12:44;100640.00;;;9.40
71564;BMP180;59391;52.504;13.438;2023-11-19T03:15:11;100625.00;;;9.30
71564;BMP180;59391;52.504;13.438;2023-11-19T03:17:41;100628.00;;;9.40
71564;BMP180;59391;52.504;13.438;2023-11-19T03:20:10;100632.00;;;9.40
71564;BMP180;59391;52.504;13.438;2023-11-19T03:22:39;100628.00;;;9.40
71564;BMP180;59391;52.504;13.438;2023-11-19T03:25:07;100630.00;;;9.40
71564;BMP180;59391;52.504;13.438;2023-11-19T03:27:38;100628.00;;;9.40
71564;BMP180;59391;52.504;13.438;2023-11-19T03:30:10;100639.00;;;9.40
71564;BMP180;59391;52.504;13.438;2023-11-19T03:32:36;100631.00;;;9.50
71564;BMP180;59391;52.504;13.438;2023-11-19T03:35:02;100628.00;;;9.50
71564;BMP180;59391;52.504;13.438;2023-11-19T03:37:30;100618.00;;;9.50
71564;BMP180;59391;52.504;13.438;2023-11-19T03:39:57;100604.00;;;9.40
71564;BMP180;59391;52.504;13.438;2023-11-19T03:42:26;100594.00;;;9.40
71564;BMP180;59391;52.504;13.438;2023-11-19T03:44:55;100575.00;;;9.30
71564;BMP180;59391;52.504;13.438;2023-11-19T03:47:21;100575.00;;;9.20
71564;BMP180;59391;52.504;13.438;2023-11-19T03:49:50;100559.00;;;9.10
71564;BMP180;59391;52.504;13.438;2023-11-19T03:52:17;100575.00;;;9.00
71564;BMP180;59391;52.504;13.438;2023-11-19T03:54:43;100566.00;;;8.90
71564;BMP180;59391;52.504;13.438;2023-11-19T03:57:09;100556.00;;;8.80
71564;BMP180;59391;52.504;13.438;2023-11-19T03:59:38;100556.00;;;8.80
71564;BMP180;59391;52.504;13.438;2023-11-19T04:02:03;100548.00;;;8.70
71564;BMP180;59391;52.504;13.438;2023-11-19T04:04:29;100524.00;;;8.60
71564;BMP180;59391;52.504;13.438;2023-11-19T04:06:55;100507.00;;;8.60
71564;BMP180;59391;52.504;13.438;2023-11-19T04:09:22;100494.00;;;8.50
71564;BMP180;59391;52.504;13.438;2023-11-19T04:11:48;100496.00;;;8.50
71564;BMP180;59391;52.504;13.438;2023-11-19T04:14:14;100480.00;;;8.40
71564;BMP180;59391;52.504;13.438;2023-11-19T04:16:40;100488.00;;;8.40
71564;BMP180;59391;52.504;13.438;2023-11-19T04:19:06;100474.00;;;8.40
71564;BMP180;59391;52.504;13.438;2023-11-19T04:21:33;100485.00;;;8.40
71564;BMP180;59391;52.504;13.438;2023-11-19T04:23:58;100464.00;;;8.40
71564;BMP180;59391;52.504;13.438;2023-11-19T04:26:24;100459.00;;;8.30
71564;BMP180;59391;52.504;13.438;2023-11-19T04:28:50;100462.00;;;8.30
71564;BMP180;59391;52.504;13.438;2023-11-19T04:31:19;100466.00;;;8.30
71564;BMP180;59391;52.504;13.438;2023-11-19T04:33:45;100461.00;;;8.30
71564;BMP180;59391;52.504;13.438;2023-11-19T04:36:11;100457.00;;;8.40
71564;BMP180;59391;52.504;13.438;2023-11-19T04:38:37;100458.00;;;8.40
71564;BMP180;59391;52.504;13.438;2023-11-19T04:41:05;100461.00;;;8.40
71564;BMP180;59391;52.504;13.438;2023-11-19T04:43:31;100448.00;;;8.40
71564;BMP180;59391;52.504;13.438;2023-11-19T04:45:58;100459.00;;;8.40
71564;BMP180;59391;52.504;13.438;2023-11-19T04:48:24;100459.00;;;8.40
71564;BMP180;59391;52.504;13.438;2023-11-19T04:50:50;100461.00;;;8.30
71564;BMP180;59391;52.504;13.438;2023-11-19T04:53:18;100451.00;;;8.40
71564;BMP180;59391;52.504;13.438;2023-11-19T04:55:44;100448.00;;;8.40
71564;BMP180;59391;52.504;13.438;2023-11-19T04:58:10;100441.00;;;8.40
71564;BMP180;59391;52.504;13.438;2023-11-19T05:00:35;100420.00;;;8.40
71564;BMP180;59391;52.504;13.438;2023-11-19T05:03:01;100415.00;;;8.40
71564;BMP180;59391;52.504;13.438;2023-11-19T05:05:27;100419.00;;;8.40
71564;BMP180;59391;52.504;13.438;2023-11-19T05:07:52;100397.00;;;8.40
71564;BMP180;59391;52.504;13.438;2023-11-19T05:10:18;100401.00;;;8.30
71564;BMP180;59391;52.504;13.438;2023-11-19T05:12:44;100404.00;;;8.30
71564;BMP180;59391;52.504;13.438;2023-11-19T05:15:10;100388.00;;;8.30
71564;BMP180;59391;52.504;13.438;2023-11-19T05:17:37;100388.00;;;8.40
71564;BMP180;59391;52.504;13.438;2023-11-19T05:20:03;100365.00;;;8.40
71564;BMP180;59391;52.504;13.438;2023-11-19T05:22:29;100351.00;;;8.40
71564;BMP180;59391;52.504;13.438;2023-11-19T05:24:55;100357.00;;;8.40
71564;BMP180;59391;52.504;13.438;2023-11-19T05:27:21;100355.00;;;8.40
71564;BMP180;59391;52.504;13.438;2023-11-19T05:29:47;100353.00;;;8.40
71564;BMP180;59391;52.504;13.438;2023-11-19T05:32:13;100349.00;;;8.40
71564;BMP180;59391;52.504;13.438;2023-11-19T05:34:38;100343.00;;;8.40
71564;BMP180;59391;52.504;13.438;2023-11-19T05:37:04;100344.00;;;8.40
71564;BMP180;59391;52.504;13.438;2023-11-19T05:39:31;100338.00;;;8.50
71564;BMP180;59391;52.504;13.438;2023-11-19T05:41:56;100334.00;;;8.40
71564;BMP180;59391;52.504;13.438;2023-11-19T05:44:22;100347.00;;;8.40
71564;BMP180;59391;52.504;13.438;2023-11-19T05:46:47;100326.00;;;8.50
71564;BMP180;59391;52.504;13.438;2023-11-19T05:49:13;100324.00;;;8.50
71564;BMP180;59391;52.504;13.438;2023-11-19T05:51:39;100312.00;;;8.50
71564;BMP180;59391;52.504;13.438;2023-11-19T05:54:10;100298.00;;;8.50
71564;BMP180;59391;52.504;13.438;2023-11-19T05:56:36;100289.00;;;8.50
71564;BMP180;59391;52.504;13.438;2023-11-19T05:59:02;100296.00;;;8.50
71564;BMP180;59391;52.504;13.438;2023-11-19T06:01:40;100288.00;;;8.50
71564;BMP180;59391;52.504;13.438;2023-11-19T06:04:07;100274.00;;;8.50
71564;BMP180;59391;52.504;13.438;2023-11-19T06:06:32;100279.00;;;8.50
71564;BMP180;59391;52.504;13.438;2023-11-19T06:08:58;100281.00;;;8.50
71564;BMP180;59391;52.504;13.438;2023-11-19T06:11:24;100289.00;;;8.50
71564;BMP180;59391;52.504;13.438;2023-11-19T06:13:52;100290.00;;;8.50
71564;BMP180;59391;52.504;13.438;2023-11-19T06:16:18;100278.00;;;8.60
71564;BMP180;59391;52.504;13.438;2023-11-19T06:18:44;100276.00;;;8.60
71564;BMP180;59391;52.504;13.438;2023-11-19T06:21:10;100265.00;;;8.50
71564;BMP180;59391;52.504;13.438;2023-11-19T06:23:36;100262.00;;;8.60
71564;BMP180;59391;52.504;13.438;2023-11-19T06:26:02;100252.00;;;8.60
71564;BMP180;59391;52.504;13.438;2023-11-19T06:28:28;100245.00;;;8.70
71564;BMP180;59391;52.504;13.438;2023-11-19T06:30:54;100245.00;;;8.60
71564;BMP180;59391;52.504;13.438;2023-11-19T06:33:20;100246.00;;;8.60
71564;BMP180;59391;52.504;13.438;2023-11-19T06:35:45;100254.00;;;8.60
71564;BMP180;59391;52.504;13.438;2023-11-19T06:38:11;100238.00;;;8.70
71564;BMP180;59391;52.504;13.438;2023-11-19T06:40:37;100225.00;;;8.70
71564;BMP180;59391;52.504;13.438;2023-11-19T06:43:03;100228.00;;;8.60
71564;BMP180;59391;52.504;13.438;2023-11-19T06:45:29;100223.00;;;8.70
71564;BMP180;59391;52.504;13.438;2023-11-19T06:47:55;100210.00;;;8.70
71564;BMP180;59391;52.504;13.438;2023-11-19T06:50:21;100212.00;;;8.70
71564;BMP180;59391;52.504;13.438;2023-11-19T06:52:47;100226.00;;;8.70
71564;BMP180;59391;52.504;13.438;2023-11-19T06:55:13;100220.00;;;8.70
71564;BMP180;59391;52.504;13.438;2023-11-19T06:57:38;100226.00;;;8.80
71564;BMP180;59391;52.504;13.438;2023-11-19T07:00:06;100216.00;;;8.70
71564;BMP180;59391;52.504;13.438;2023-11-19T07:02:32;100221.00;;;8.80
71564;BMP180;59391;52.504;13.438;2023-11-19T07:04:58;100220.00;;;8.70
71564;BMP180;59391;52.504;13.438;2023-11-19T07:07:23;100226.00;;;8.80
71564;BMP180;59391;52.504;13.438;2023-11-19T07:09:49;100214.00;;;8.80
71564;BMP180;59391;52.504;13.438;2023-11-19T07:12:15;100217.00;;;8.80
71564;BMP180;59391;52.504;13.438;2023-11-19T07:14:41;100212.00;;;8.90
71564;BMP180;59391;52.504;13.438;2023-11-19T07:17:09;100219.00;;;8.90
71564;BMP180;59391;52.504;13.438;2023-11-19T07:19:35;100213.00;;;8.90
71564;BMP180;59391;52.504;13.438;2023-11-19T07:22:04;100235.00;;;8.90
71564;BMP180;59391;52.504;13.438;2023-11-19T07:24:29;100240.00;;;8.90
71564;BMP180;59391;52.504;13.438;2023-11-19T07:26:55;100240.00;;;9.00
71564;BMP180;59391;52.504;13.438;2023-11-19T07:29:21;100226.00;;;9.00
71564;BMP180;59391;52.504;13.438;2023-11-19T07:31:49;100215.00;;;9.00
71564;BMP180;59391;52.504;13.438;2023-11-19T07:34:15;100207.00;;;9.00
71564;BMP180;59391;52.504;13.438;2023-11-19T07:36:41;100209.00;;;9.10
71564;BMP180;59391;52.504;13.438;2023-11-19T07:39:07;100202.00;;;9.10
71564;BMP180;59391;52.504;13.438;2023-11-19T07:41:34;100199.00;;;9.10
71564;BMP180;59391;52.504;13.438;2023-11-19T07:44:00;100210.00;;;9.10
71564;BMP180;59391;52.504;13.438;2023-11-19T07:46:26;100225.00;;;9.20
71564;BMP180;59391;52.504;13.438;2023-11-19T07:48:52;100209.00;;;9.20
71564;BMP180;59391;52.504;13.438;2023-11-19T07:51:18;100217.00;;;9.20
71564;BMP180;59391;52.504;13.438;2023-11-19T07:53:44;100213.00;;;9.20
71564;BMP180;59391;52.504;13.438;2023-11-19T07:56:10;100216.00;;;9.30
71564;BMP180;59391;52.504;13.438;2023-11-19T07:58:36;100209.00;;;9.30
71564;BMP180;59391;52.504;13.438;2023-11-19T08:01:02;100198.00;;;9.30
71564;BMP180;59391;52.504;13.438;2023-11-19T08:03:28;100211.00;;;9.40
71564;BMP180;59391;52.504;13.438;2023-11-19T08:05:58;100220.00;;;9.40
71564;BMP180;59391;52.504;13.438;2023-11-19T08:08:23;100210.00;;;9.50
71564;BMP180;59391;52.504;13.438;2023-11-19T08:10:49;100204.00;;;9.40
71564;BMP180;59391;52.504;13.438;2023-11-19T08:13:18;100195.00;;;9.50
71564;BMP180;59391;52.504;13.438;2023-11-19T08:15:43;100202.00;;;9.50
71564;BMP180;59391;52.504;13.438;2023-11-19T08:18:09;100201.00;;;9.50
71564;BMP180;59391;52.504;13.438;2023-11-19T08:20:34;100202.00;;;9.60
71564;BMP180;59391;52.504;13.438;2023-11-19T08:23:02;100198.00;;;9.60
71564;BMP180;59391;52.504;13.438;2023-11-19T08:25:29;100189.00;;;9.70
71564;BMP180;59391;52.504;13.438;2023-11-19T08:27:54;100195.00;;;9.70
71564;BMP180;59391;52.504;13.438;2023-11-19T08:30:20;100184.00;;;9.70
71564;BMP180;59391;52.504;13.438;2023-11-19T08:32:45;100194.00;;;9.80
71564;BMP180;59391;52.504;13.438;2023-11-19T08:35:11;100204.00;;;9.80
71564;BMP180;59391;52.504;13.438;2023-11-19T08:37:37;100176.00;;;9.90
71564;BMP180;59391;52.504;13.438;2023-11-19T08:40:04;100157.00;;;9.90
71564;BMP180;59391;52.504;13.438;2023-11-19T08:42:30;100167.00;;;9.90
71564;BMP180;59391;52.504;13.438;2023-11-19T08:44:56;100157.00;;;10.00
71564;BMP180;59391;52.504;13.438;2023-11-19T08:47:22;100174.00;;;10.00
71564;BMP180;59391;52.504;13.438;2023-11-19T08:49:51;100174.00;;;10.00
71564;BMP180;59391;52.504;13.438;2023-11-19T08:52:20;100178.00;;;10.10
71564;BMP180;59391;52.504;13.438;2023-11-19T08:54:46;100158.00;;;10.20
71564;BMP180;59391;52.504;13.438;2023-11-19T08:57:11;100154.00;;;10.20
71564;BMP180;59391;52.504;13.438;2023-11-19T08:59:37;100145.00;;;10.30
71564;BMP180;59391;52.504;13.438;2023-11-19T09:02:05;100159.00;;;10.30
71564;BMP180;59391;52.504;13.438;2023-11-19T09:04:31;100180.00;;;10.40
71564;BMP180;59391;52.504;13.438;2023-11-19T09:06:58;100166.00;;;10.50
71564;BMP180;59391;52.504;13.438;2023-11-19T09:09:23;100162.00;;;10.50
71564;BMP180;59391;52.504;13.438;2023-11-19T09:11:49;100164.00;;;10.50
71564;BMP180;59391;52.504;13.438;2023-11-19T09:14:15;100173.00;;;10.60
71564;BMP180;59391;52.504;13.438;2023-11-19T09:16:41;100172.00;;;10.70
71564;BMP180;59391;52.504;13.438;2023-11-19T09:19:06;100179.00;;;10.70
71564;BMP180;59391;52.504;13.438;2023-11-19T09:21:32;100176.00;;;10.70
71564;BMP180;59391;52.504;13.438;2023-11-19T09:23:59;100177.00;;;10.80
71564;BMP180;59391;52.504;13.438;2023-11-19T09:26:25;100165.00;;;10.90
71564;BMP180;59391;52.504;13.438;2023-11-19T09:28:51;100175.00;;;10.90
71564;BMP180;59391;52.504;13.438;2023-11-19T09:31:17;100183.00;;;11.10
71564;BMP180;59391;52.504;13.438;2023-11-19T09:33:46;100171.00;;;11.10
71564;BMP180;59391;52.504;13.438;2023-11-19T09:36:15;100162.00;;;11.20
71564;BMP180;59391;52.504;13.438;2023-11-19T09:38:43;100166.00;;;11.30
71564;BMP180;59391;52.504;13.438;2023-11-19T09:41:10;100170.00;;;11.40
71564;BMP180;59391;52.504;13.438;2023-11-19T09:43:42;100156.00;;;11.50
71564;BMP180;59391;52.504;13.438;2023-11-19T09:46:15;100143.00;;;11.50
71564;BMP180;59391;52.504;13.438;2023-11-19T09:48:42;100172.00;;;11.60
71564;BMP180;59391;52.504;13.438;2023-11-19T09:51:11;100154.00;;;11.80
71564;BMP180;59391;52.504;13.438;2023-11-19T09:53:38;100152.00;;;11.90
71564;BMP180;59391;52.504;13.438;2023-11-19T09:56:05;100147.00;;;12.00
71564;BMP180;59391;52.504;13.438;2023-11-19T09:58:32;100148.00;;;12.30
71564;BMP180;59391;52.504;13.438;2023-11-19T10:00:59;100141.00;;;12.40
71564;BMP180;59391;52.504;13.438;2023-11-19T10:03:33;100141.00;;;12.40
71564;BMP180;59391;52.504;13.438;2023-11-19T10:06:02;100131.00;;;12.30
71564;BMP180;59391;52.504;13.438;2023-11-19T10:08:27;100148.00;;;12.60
71564;BMP180;59391;52.504;13.438;2023-11-19T10:10:53;100151.00;;;12.60
71564;BMP180;59391;52.504;13.438;2023-11-19T10:13:19;100151.00;;;12.70
71564;BMP180;59391;52.504;13.438;2023-11-19T10:15:45;100132.00;;;12.70
71564;BMP180;59391;52.504;13.438;2023-11-19T10:18:14;100143.00;;;12.80
71564;BMP180;59391;52.504;13.438;2023-11-19T10:20:41;100136.00;;;13.00
71564;BMP180;59391;52.504;13.438;2023-11-19T10:23:07;100138.00;;;13.30
71564;BMP180;59391;52.504;13.438;2023-11-19T10:25:33;100146.00;;;13.40
71564;BMP180;59391;52.504;13.438;2023-11-19T10:28:00;100143.00;;;13.40
71564;BMP180;59391;52.504;13.438;2023-11-19T10:30:32;100143.00;;;13.40
71564;BMP180;59391;52.504;13.438;2023-11-19T10:33:13;100142.00;;;13.40
71564;BMP180;59391;52.504;13.438;2023-11-19T10:35:54;100104.00;;;13.40
71564;BMP180;59391;52.504;13.438;2023-11-19T10:38:23;100129.00;;;13.50
71564;BMP180;59391;52.504;13.438;2023-11-19T10:40:52;100102.00;;;13.60
71564;BMP180;59391;52.504;13.438;2023-11-19T10:43:20;100088.00;;;13.80
71564;BMP180;59391;52.504;13.438;2023-11-19T10:45:47;100119.00;;;13.90
71564;BMP180;59391;52.504;13.438;2023-11-19T10:48:13;100127.00;;;14.00
71564;BMP180;59391;52.504;13.438;2023-11-19T10:50:42;100107.00;;;14.00
71564;BMP180;59391;52.504;13.438;2023-11-19T10:53:10;100105.00;;;14.00
71564;BMP180;59391;52.504;13.438;2023-11-19T10:55:39;100119.00;;;14.10
71564;BMP180;59391;52.504;13.438;2023-11-19T10:58:08;100112.00;;;14.10
71564;BMP180;59391;52.504;13.438;2023-11-19T11:03:21;100111.00;;;14.20
71564;BMP180;59391;52.504;13.438;2023-11-19T11:05:53;100099.00;;;14.30
71564;BMP180;59391;52.504;13.438;2023-11-19T11:08:20;100111.00;;;14.40
71564;BMP180;59391;52.504;13.438;2023-11-19T11:10:55;100116.00;;;14.40
71564;BMP180;59391;52.504;13.438;2023-11-19T11:13:24;100107.00;;;14.50
71564;BMP180;59391;52.504;13.438;2023-11-19T11:15:50;100125.00;;;14.40
71564;BMP180;59391;52.504;13.438;2023-11-19T11:18:17;100092.00;;;14.70
71564;BMP180;59391;52.504;13.438;2023-11-19T11:20:47;100093.00;;;14.80
71564;BMP180;59391;52.504;13.438;2023-11-19T11:29:38;100098.00;;;15.90
71564;BMP180;59391;52.504;13.438;2023-11-19T11:32:43;100100.00;;;16.00
71564;BMP180;59391;52.504;13.438;2023-11-19T11:35:51;100106.00;;;16.00
71564;BMP180;59391;52.504;13.438;2023-11-19T11:38:22;100098.00;;;16.10
71564;BMP180;59391;52.504;13.438;2023-11-19T11:41:24;100106.00;;;16.70
71564;BMP180;59391;52.504;13.438;2023-11-19T11:43:55;100096.00;;;17.40
71564;BMP180;59391;52.504;13.438;2023-11-19T11:49:08;100100.00;;;18.20
71564;BMP180;59391;52.504;13.438;2023-11-19T11:54:30;100104.00;;;18.90
71564;BMP180;59391;52.504;13.438;2023-11-19T11:57:22;100095.00;;;18.90
71564;BMP180;59391;52.504;13.438;2023-11-19T11:59:49;100088.00;;;18.70
71564;BMP180;59391;52.504;13.438;2023-11-19T12:02:19;100092.00;;;18.30
71564;BMP180;59391;52.504;13.438;2023-11-19T12:04:52;100089.00;;;18.00
71564;BMP180;59391;52.504;13.438;2023-11-19T12:07:23;100082.00;;;17.70
71564;BMP180;59391;52.504;13.438;2023-11-19T12:10:09;100090.00;;;17.40
71564;BMP180;59391;52.504;13.438;2023-11-19T12:12:37;100083.00;;;17.20
71564;BMP180;59391;52.504;13.438;2023-11-19T12:15:09;100087.00;;;17.10
71564;BMP180;59391;52.504;13.438;2023-11-19T12:17:42;100095.00;;;17.00
71564;BMP180;59391;52.504;13.438;2023-11-19T12:20:10;100094.00;;;16.90
71564;BMP180;59391;52.504;13.438;2023-11-19T12:22:41;100099.00;;;16.80
71564;BMP180;59391;52.504;13.438;2023-11-19T12:25:09;100102.00;;;16.60
71564;BMP180;59391;52.504;13.438;2023-11-19T12:27:39;100101.00;;;16.60
71564;BMP180;59391;52.504;13.438;2023-11-19T12:30:06;100093.00;;;16.40
71564;BMP180;59391;52.504;13.438;2023-11-19T12:32:42;100088.00;;;16.40
71564;BMP180;59391;52.504;13.438;2023-11-19T12:35:09;100092.00;;;16.30
71564;BMP180;59391;52.504;13.438;2023-11-19T12:37:49;100106.00;;;16.20
71564;BMP180;59391;52.504;13.438;2023-11-19T12:40:24;100089.00;;;16.10
71564;BMP180;59391;52.504;13.438;2023-11-19T12:42:54;100084.00;;;16.10
71564;BMP180;59391;52.504;13.438;2023-11-19T12:45:21;100088.00;;;16.00
71564;BMP180;59391;52.504;13.438;2023-11-19T12:47:49;100082.00;;;16.00
71564;BMP180;59391;52.504;13.438;2023-11-19T12:50:16;100087.00;;;15.90
71564;BMP180;59391;52.504;13.438;2023-11-19T12:52:58;100075.00;;;15.90
71564;BMP180;59391;52.504;13.438;2023-11-19T12:55:29;100095.00;;;15.90
71564;BMP180;59391;52.504;13.438;2023-11-19T12:57:56;100101.00;;;15.90
71564;BMP180;59391;52.504;13.438;2023-11-19T13:00:26;100094.00;;;15.90
71564;BMP180;59391;52.504;13.438;2023-11-19T13:02:54;100096.00;;;15.90
71564;BMP180;59391;52.504;13.438;2023-11-19T13:05:33;100082.00;;;15.90
71564;BMP180;59391;52.504;13.438;2023-11-19T13:08:10;100095.00;;;15.90
71564;BMP180;59391;52.504;13.438;2023-11-19T13:10:52;100100.00;;;16.00
71564;BMP180;59391;52.504;13.438;2023-11-19T13:13:19;100090.00;;;16.10
71564;BMP180;59391;52.504;13.438;2023-11-19T13:15:45;100082.00;;;16.20
71564;BMP180;59391;52.504;13.438;2023-11-19T13:18:12;100084.00;;;16.50
71564;BMP180;59391;52.504;13.438;2023-11-19T13:20:38;100100.00;;;16.80
71564;BMP180;59391;52.504;13.438;2023-11-19T13:23:06;100092.00;;;16.90
71564;BMP180;59391;52.504;13.438;2023-11-19T13:25:36;100084.00;;;17.10
71564;BMP180;59391;52.504;13.438;2023-11-19T13:28:02;100063.00;;;17.30
71564;BMP180;59391;52.504;13.438;2023-11-19T13:30:28;100084.00;;;17.30
71564;BMP180;59391;52.504;13.438;2023-11-19T13:32:55;100066.00;;;17.20
71564;BMP180;59391;52.504;13.438;2023-11-19T13:35:21;100067.00;;;17.20
71564;BMP180;59391;52.504;13.438;2023-11-19T13:37:50;100066.00;;;17.00
71564;BMP180;59391;52.504;13.438;2023-11-19T13:40:17;100079.00;;;16.90
71564;BMP180;59391;52.504;13.438;2023-11-19T13:42:44;100076.00;;;16.80
71564;BMP180;59391;52.504;13.438;2023-11-19T13:45:14;100091.00;;;16.70
71564;BMP180;59391;52.504;13.438;2023-11-19T13:47:45;100091.00;;;16.70
71564;BMP180;59391;52.504;13.438;2023-11-19T13:50:15;100085.00;;;16.60
71564;BMP180;59391;52.504;13.438;2023-11-19T13:52:43;100085.00;;;16.60
71564;BMP180;59391;52.504;13.438;2023-11-19T13:55:13;100066.00;;;16.50
71564;BMP180;59391;52.504;13.438;2023-11-19T13:57:40;100089.00;;;16.40
71564;BMP180;59391;52.504;13.438;2023-11-19T14:00:11;100086.00;;;16.40
71564;BMP180;59391;52.504;13.438;2023-11-19T14:02:47;100090.00;;;16.30
71564;BMP180;59391;52.504;13.438;2023-11-19T14:05:14;100100.00;;;16.30
71564;BMP180;59391;52.504;13.438;2023-11-19T14:07:44;100078.00;;;16.20
71564;BMP180;59391;52.504;13.438;2023-11-19T14:10:11;100096.00;;;16.20